Time;durP1;ratioP1;P1;durP2;ratioP2;P2;SDS_P1;SDS_P2;PMS_P1;PMS_P2;Temp;Humidity;BMP_temperature;BMP_pressure;BME280_temperature;BME280_humidity;BME280_pressure;Samples;Min_cycle;Max_cycle;Signal;HPM_P1;HPM_P2
2022/09/24 00:01:40;;;;;;;;;;;10.60;99.90;;;;;;5071661;28;19924;-71
2022/09/24 00:04:12;;;;;;;;;;;10.70;99.90;;;;;;5073360;28;19928;-72
2022/09/24 00:06:45;;;;;;;;;;;10.60;99.90;;;;;;5056801;28;19970;-72
2022/09/24 00:09:20;;;;;;;;;;;10.70;99.90;;;;;;5049824;28;19928;-72
2022/09/24 00:11:52;;;;;;;;;;;10.70;99.90;;;;;;5057001;28;19924;-72
2022/09/24 00:14:24;;;;;;;;;;;10.70;99.90;;;;;;5043451;28;19925;-72
2022/09/24 00:16:55;;;;;;;;;;;10.70;99.90;;;;;;5074017;28;19924;-72
2022/09/24 00:19:27;;;;;;;;;;;10.70;99.90;;;;;;5079861;28;20458;-74
2022/09/24 00:21:58;;;;;;;;;;;10.60;99.90;;;;;;5085673;28;19955;-71
2022/09/24 00:27:20;;;;;;;;;;;10.60;99.90;;;;;;5081466;28;19935;-72
2022/09/24 00:29:52;;;;;;;;;;;10.60;99.90;;;;;;5063532;28;19928;-72
2022/09/24 00:32:23;;;;;;;;;;;10.60;99.90;;;;;;5081847;28;19924;-72
2022/09/24 00:34:55;;;;;;;;;;;10.60;99.90;;;;;;5057031;28;19928;-71
2022/09/24 00:37:27;;;;;;;;;;;10.60;99.90;;;;;;5058742;28;19954;-72
2022/09/24 00:39:59;;;;;;;;;;;10.50;99.90;;;;;;5079058;28;19974;-72
2022/09/24 00:42:31;;;;;;;;;;;10.50;99.90;;;;;;5055787;28;19925;-72
2022/09/24 00:45:04;;;;;;;;;;;10.40;99.90;;;;;;5049278;28;19932;-72
2022/09/24 00:47:39;;;;;;;;;;;10.40;99.90;;;;;;5076424;28;19924;-72
2022/09/24 00:50:15;;;;;;;;;;;10.40;99.90;;;;;;5063090;28;20386;-72
2022/09/24 00:52:57;;;;;;;;;;;10.40;99.90;;;;;;5052003;28;20354;-71
2022/09/24 00:55:30;;;;;;;;;;;10.30;99.90;;;;;;5046455;28;19924;-71
2022/09/24 00:57:58;;;;;;;;;;;10.30;99.90;;;;;;5076836;28;19924;-72
2022/09/24 01:00:30;;;;;;;;;;;10.30;99.90;;;;;;5058718;28;19994;-71
2022/09/24 01:03:07;;;;;;;;;;;10.30;99.90;;;;;;5075550;28;19928;-72
2022/09/24 01:05:38;;;;;;;;;;;10.30;99.90;;;;;;5053722;28;19924;-71
2022/09/24 01:08:11;;;;;;;;;;;10.30;99.90;;;;;;5070576;28;19929;-71
2022/09/24 01:11:02;;;;;;;;;;;10.40;99.90;;;;;;5077165;28;19928;-72
2022/09/24 01:13:42;;;;;;;;;;;10.40;99.90;;;;;;5087019;28;20344;-72
2022/09/24 01:16:17;;;;;;;;;;;10.40;99.90;;;;;;5060136;28;19970;-71
2022/09/24 01:19:08;;;;;;;;;;;10.40;99.90;;;;;;5070455;28;19924;-72
2022/09/24 01:21:37;;;;;;;;;;;10.40;99.90;;;;;;5045402;28;19924;-72
2022/09/24 01:24:18;;;;;;;;;;;10.40;99.90;;;;;;5087796;28;19978;-72
2022/09/24 01:27:00;;;;;;;;;;;10.40;99.90;;;;;;5051386;28;19968;-72
2022/09/24 01:29:40;;;;;;;;;;;10.40;99.90;;;;;;5067387;28;19924;-72
2022/09/24 01:32:12;;;;;;;;;;;10.40;99.90;;;;;;5050477;28;19971;-72
2022/09/24 01:34:49;;;;;;;;;;;10.40;99.90;;;;;;5071074;28;19931;-72
2022/09/24 01:37:21;;;;;;;;;;;10.40;99.90;;;;;;5060105;28;19928;-73
2022/09/24 01:39:54;;;;;;;;;;;10.40;99.90;;;;;;5055645;28;20346;-72
2022/09/24 01:42:27;;;;;;;;;;;10.40;99.90;;;;;;5070249;28;19970;-72
2022/09/24 01:45:00;;;;;;;;;;;10.40;99.90;;;;;;5082880;28;19931;-72
2022/09/24 01:47:37;;;;;;;;;;;10.40;99.90;;;;;;5086348;28;19928;-72
2022/09/24 01:50:10;;;;;;;;;;;10.40;99.90;;;;;;5053648;28;19932;-71
2022/09/24 01:52:45;;;;;;;;;;;10.30;99.90;;;;;;5065574;28;19924;-72
2022/09/24 01:55:18;;;;;;;;;;;10.30;99.90;;;;;;5072288;28;19924;-73
2022/09/24 01:57:50;;;;;;;;;;;10.30;99.90;;;;;;5069503;28;19929;-72
2022/09/24 02:00:22;;;;;;;;;;;10.30;99.90;;;;;;5081256;28;19932;-72
2022/09/24 02:03:20;;;;;;;;;;;10.30;99.90;;;;;;5071333;28;19925;-72
2022/09/24 02:06:09;;;;;;;;;;;10.20;99.90;;;;;;5056252;28;19933;-72
2022/09/24 02:08:45;;;;;;;;;;;10.20;99.90;;;;;;5052001;28;19959;-72
2022/09/24 02:11:21;;;;;;;;;;;10.20;99.90;;;;;;5035595;28;19983;-72
2022/09/24 02:13:56;;;;;;;;;;;10.10;99.90;;;;;;5081955;28;19950;-71
2022/09/24 02:16:25;;;;;;;;;;;10.10;99.90;;;;;;5067705;28;19974;-72
2022/09/24 02:18:59;;;;;;;;;;;10.10;99.90;;;;;;5087008;28;19936;-72
2022/09/24 02:21:31;;;;;;;;;;;10.00;99.90;;;;;;5071058;28;20296;-72
2022/09/24 02:24:09;;;;;;;;;;;10.00;99.90;;;;;;5056194;28;20584;-72
2022/09/24 02:26:41;;;;;;;;;;;10.00;99.90;;;;;;5052892;28;19955;-72
2022/09/24 02:29:13;;;;;;;;;;;10.00;99.90;;;;;;5053106;28;20353;-71
2022/09/24 02:31:46;;;;;;;;;;;10.00;99.90;;;;;;5073027;28;19924;-72
2022/09/24 02:34:19;;;;;;;;;;;10.00;99.90;;;;;;5057017;28;19933;-72
2022/09/24 02:36:53;;;;;;;;;;;10.00;99.90;;;;;;5052472;28;20445;-71
2022/09/24 02:39:25;;;;;;;;;;;10.00;99.90;;;;;;5067093;28;19986;-73
2022/09/24 02:41:57;;;;;;;;;;;10.00;99.90;;;;;;5061229;28;19924;-72
2022/09/24 02:44:30;;;;;;;;;;;10.00;99.90;;;;;;5045505;28;19975;-72
2022/09/24 02:47:01;;;;;;;;;;;10.00;99.90;;;;;;5034216;28;19971;-73
2022/09/24 02:49:33;;;;;;;;;;;9.90;99.90;;;;;;5061841;28;19928;-72
2022/09/24 02:52:05;;;;;;;;;;;10.00;99.90;;;;;;5068926;28;20307;-72
2022/09/24 02:54:31;;;;;;;;;;;10.00;99.90;;;;;;5084271;28;20071;-72
2022/09/24 02:57:03;;;;;;;;;;;10.00;99.90;;;;;;5059884;28;19970;-72
2022/09/24 02:59:35;;;;;;;;;;;10.00;99.90;;;;;;5074233;28;19947;-72
2022/09/24 03:02:06;;;;;;;;;;;10.00;99.90;;;;;;5056433;28;19925;-72
2022/09/24 03:04:38;;;;;;;;;;;9.90;99.90;;;;;;5070390;28;19990;-72
2022/09/24 03:07:13;;;;;;;;;;;9.90;99.90;;;;;;5048673;28;20386;-71
2022/09/24 03:09:45;;;;;;;;;;;9.90;99.90;;;;;;5074368;28;20387;-72
2022/09/24 03:12:17;;;;;;;;;;;10.00;99.90;;;;;;5067471;28;20299;-73
2022/09/24 03:14:43;;;;;;;;;;;10.00;99.90;;;;;;5085462;28;19969;-72
2022/09/24 03:17:15;;;;;;;;;;;10.00;99.90;;;;;;5067972;28;19924;-72
2022/09/24 03:19:46;;;;;;;;;;;10.00;99.90;;;;;;5075493;28;19970;-72
2022/09/24 03:22:18;;;;;;;;;;;10.10;99.90;;;;;;5083966;28;19934;-72
2022/09/24 03:24:49;;;;;;;;;;;10.10;99.90;;;;;;5090826;28;19931;-72
2022/09/24 03:27:21;;;;;;;;;;;10.10;99.90;;;;;;5076234;28;19929;-72
2022/09/24 03:32:38;;;;;;;;;;;10.10;99.90;;;;;;5060368;28;19928;-73
2022/09/24 03:35:10;;;;;;;;;;;10.10;99.90;;;;;;5074195;28;19979;-72
2022/09/24 03:37:37;;;;;;;;;;;10.20;99.90;;;;;;5090680;28;19982;-72
2022/09/24 03:40:08;;;;;;;;;;;10.20;99.90;;;;;;5074059;28;19994;-73
2022/09/24 03:42:40;;;;;;;;;;;10.10;99.90;;;;;;5073947;28;19932;-72
2022/09/24 03:45:12;;;;;;;;;;;10.20;99.90;;;;;;5056742;28;19982;-72
2022/09/24 03:47:43;;;;;;;;;;;10.10;99.90;;;;;;5063960;28;19978;-73
2022/09/24 03:50:16;;;;;;;;;;;10.10;99.90;;;;;;5092785;28;19924;-72
2022/09/24 03:52:47;;;;;;;;;;;10.10;99.90;;;;;;5089886;28;19928;-73
2022/09/24 03:55:19;;;;;;;;;;;10.10;99.90;;;;;;5064654;28;19928;-72
2022/09/24 03:57:45;;;;;;;;;;;10.10;99.90;;;;;;5085637;28;20975;-72
2022/09/24 04:00:17;;;;;;;;;;;10.10;99.90;;;;;;5073594;28;19924;-72
2022/09/24 04:02:49;;;;;;;;;;;10.10;99.90;;;;;;5080472;28;19986;-71
2022/09/24 04:05:15;;;;;;;;;;;10.10;99.90;;;;;;5079529;28;19932;-72
2022/09/24 04:07:47;;;;;;;;;;;10.10;99.90;;;;;;5061807;28;19924;-72
2022/09/24 04:10:18;;;;;;;;;;;10.10;99.90;;;;;;5084243;28;19932;-73
2022/09/24 04:12:54;;;;;;;;;;;10.20;99.90;;;;;;5036463;28;19979;-72
2022/09/24 04:15:25;;;;;;;;;;;10.10;99.90;;;;;;5044603;28;19978;-72
2022/09/24 04:17:57;;;;;;;;;;;10.10;99.90;;;;;;5082387;28;20568;-72
2022/09/24 04:20:29;;;;;;;;;;;10.20;99.90;;;;;;5055551;28;19928;-72
2022/09/24 04:23:01;;;;;;;;;;;10.10;99.90;;;;;;5076522;28;19925;-72
2022/09/24 04:25:33;;;;;;;;;;;10.20;99.90;;;;;;5075625;28;19978;-72
2022/09/24 04:28:06;;;;;;;;;;;10.20;99.90;;;;;;5072697;28;19925;-72
2022/09/24 04:30:33;;;;;;;;;;;10.10;99.90;;;;;;5055120;28;19978;-72
2022/09/24 04:33:05;;;;;;;;;;;10.20;99.90;;;;;;5055272;28;19924;-72
2022/09/24 04:35:37;;;;;;;;;;;10.20;99.90;;;;;;5066574;28;19978;-72
2022/09/24 04:38:03;;;;;;;;;;;10.20;99.90;;;;;;5071080;28;20334;-72
2022/09/24 04:40:35;;;;;;;;;;;10.20;99.90;;;;;;5055354;28;19924;-72
2022/09/24 04:43:07;;;;;;;;;;;10.20;99.90;;;;;;5072822;28;19936;-73
2022/09/24 04:45:38;;;;;;;;;;;10.20;99.90;;;;;;5071952;28;19929;-71
2022/09/24 04:48:10;;;;;;;;;;;10.20;99.90;;;;;;5072604;28;19928;-71
2022/09/24 04:50:42;;;;;;;;;;;10.30;99.90;;;;;;5072877;28;19924;-72
2022/09/24 04:53:08;;;;;;;;;;;10.30;99.90;;;;;;5091419;28;19976;-72
2022/09/24 04:55:40;;;;;;;;;;;10.30;99.90;;;;;;5070145;28;20383;-73
2022/09/24 04:58:12;;;;;;;;;;;10.30;99.90;;;;;;5074341;28;19928;-73
2022/09/24 05:00:38;;;;;;;;;;;10.30;99.90;;;;;;5072654;28;19925;-72
2022/09/24 05:03:10;;;;;;;;;;;10.40;99.90;;;;;;5052780;28;20552;-72
2022/09/24 05:05:42;;;;;;;;;;;10.40;99.90;;;;;;5091618;28;19935;-72
2022/09/24 05:08:13;;;;;;;;;;;10.40;99.90;;;;;;5077210;28;20268;-72
2022/09/24 05:10:40;;;;;;;;;;;10.40;99.90;;;;;;5072646;28;19990;-72
2022/09/24 05:13:11;;;;;;;;;;;10.40;99.90;;;;;;5089316;28;20380;-71
2022/09/24 05:15:38;;;;;;;;;;;10.50;99.90;;;;;;5071978;28;19924;-72
2022/09/24 05:18:09;;;;;;;;;;;10.40;99.90;;;;;;5072275;28;19932;-72
2022/09/24 05:20:41;;;;;;;;;;;10.40;99.90;;;;;;5072447;28;19970;-72
2022/09/24 05:23:13;;;;;;;;;;;10.40;99.90;;;;;;5072710;28;19928;-72
2022/09/24 05:28:32;;;;;;;;;;;10.40;99.90;;;;;;5072335;28;19971;-72
2022/09/24 05:31:04;;;;;;;;;;;10.50;99.90;;;;;;5054781;28;20488;-72
2022/09/24 05:33:36;;;;;;;;;;;10.50;99.90;;;;;;5064433;28;19955;-72
2022/09/24 05:36:07;;;;;;;;;;;10.50;99.90;;;;;;5046307;28;19924;-72
2022/09/24 05:38:39;;;;;;;;;;;10.50;99.90;;;;;;5071839;28;19929;-72
2022/09/24 05:41:11;;;;;;;;;;;10.50;99.90;;;;;;5072350;28;19931;-73
2022/09/24 05:43:42;;;;;;;;;;;10.50;99.90;;;;;;5072350;28;19975;-72
2022/09/24 05:46:14;;;;;;;;;;;10.50;99.90;;;;;;5071805;28;19925;-71
2022/09/24 05:48:45;;;;;;;;;;;10.50;99.90;;;;;;5072228;28;19931;-72
2022/09/24 05:51:17;;;;;;;;;;;10.40;99.90;;;;;;5041225;28;19974;-72
2022/09/24 05:53:49;;;;;;;;;;;10.40;99.90;;;;;;5038277;28;19924;-71
2022/09/24 05:56:20;;;;;;;;;;;10.30;99.90;;;;;;5054026;28;19925;-72
2022/09/24 05:58:52;;;;;;;;;;;10.30;99.90;;;;;;5054492;28;19979;-72
2022/09/24 06:01:24;;;;;;;;;;;10.30;99.90;;;;;;5043668;28;19925;-72
2022/09/24 06:03:56;;;;;;;;;;;10.30;99.90;;;;;;5055660;28;19925;-72
2022/09/24 06:06:28;;;;;;;;;;;10.30;99.90;;;;;;5086520;28;19928;-72
2022/09/24 06:08:59;;;;;;;;;;;10.30;99.90;;;;;;5051867;28;19929;-72
2022/09/24 06:11:34;;;;;;;;;;;10.30;99.90;;;;;;5067464;28;20350;-72
2022/09/24 06:14:05;;;;;;;;;;;10.30;99.90;;;;;;5070224;28;19970;-72
2022/09/24 06:16:37;;;;;;;;;;;10.40;99.90;;;;;;5046860;28;20391;-72
2022/09/24 06:19:03;;;;;;;;;;;10.50;99.90;;;;;;5070236;28;19924;-71
2022/09/24 06:21:35;;;;;;;;;;;10.50;99.90;;;;;;5079686;28;19979;-72
2022/09/24 06:24:07;;;;;;;;;;;10.60;99.90;;;;;;5073361;28;19983;-71
2022/09/24 06:26:38;;;;;;;;;;;10.70;99.90;;;;;;5074121;28;19924;-72
2022/09/24 06:29:10;;;;;;;;;;;10.70;99.90;;;;;;5078848;28;19936;-72
2022/09/24 06:31:42;;;;;;;;;;;10.80;99.90;;;;;;5057653;28;19929;-72
2022/09/24 06:34:14;;;;;;;;;;;10.80;99.90;;;;;;5057421;28;19932;-72
2022/09/24 06:36:41;;;;;;;;;;;10.90;99.90;;;;;;5074666;28;19967;-72
2022/09/24 06:39:12;;;;;;;;;;;11.00;99.90;;;;;;5075175;28;20629;-73
2022/09/24 06:41:45;;;;;;;;;;;11.00;99.90;;;;;;5088828;28;19924;-71
2022/09/24 06:44:18;;;;;;;;;;;11.00;99.90;;;;;;5077501;28;19924;-72
2022/09/24 06:46:49;;;;;;;;;;;11.10;99.90;;;;;;5063859;28;19994;-72
2022/09/24 06:49:16;;;;;;;;;;;11.10;99.90;;;;;;5059935;28;19931;-72
2022/09/24 06:51:47;;;;;;;;;;;11.20;99.90;;;;;;5075340;28;19991;-73
2022/09/24 06:54:14;;;;;;;;;;;11.20;99.90;;;;;;5073719;28;19925;-72
2022/09/24 06:56:41;;;;;;;;;;;11.20;99.90;;;;;;5063446;28;19928;-71
2022/09/24 06:59:12;;;;;;;;;;;11.30;99.90;;;;;;5074926;28;19928;-71
2022/09/24 07:01:44;;;;;;;;;;;11.30;99.90;;;;;;5047037;28;19932;-72
2022/09/24 07:04:10;;;;;;;;;;;11.30;99.90;;;;;;5070557;28;19925;-72
2022/09/24 07:09:32;;;;;;;;;;;11.30;99.90;;;;;;5078182;28;19924;-72
2022/09/24 07:12:05;;;;;;;;;;;11.40;99.90;;;;;;5047517;28;19928;-72
2022/09/24 07:14:37;;;;;;;;;;;11.50;99.90;;;;;;5083054;28;19931;-72
2022/09/24 07:17:08;;;;;;;;;;;11.50;99.90;;;;;;5064144;28;19974;-72
2022/09/24 07:19:40;;;;;;;;;;;11.50;99.90;;;;;;5047913;28;19928;-71
2022/09/24 07:22:12;;;;;;;;;;;11.60;99.90;;;;;;5058264;28;19977;-72
2022/09/24 07:24:44;;;;;;;;;;;11.70;99.90;;;;;;5056057;28;19936;-72
2022/09/24 07:27:16;;;;;;;;;;;11.70;99.90;;;;;;5059302;28;19931;-72
2022/09/24 07:29:48;;;;;;;;;;;11.80;99.90;;;;;;5081469;28;19924;-72
2022/09/24 07:32:19;;;;;;;;;;;12.00;99.90;;;;;;5069326;28;19978;-72
2022/09/24 07:34:53;;;;;;;;;;;12.10;99.90;;;;;;5072625;28;19925;-72
2022/09/24 07:37:19;;;;;;;;;;;12.20;99.90;;;;;;5072535;28;20338;-72
2022/09/24 07:39:51;;;;;;;;;;;12.20;99.90;;;;;;5059084;28;19982;-72
2022/09/24 07:42:24;;;;;;;;;;;12.30;99.90;;;;;;5067579;28;19971;-73
2022/09/24 07:44:56;;;;;;;;;;;12.40;99.90;;;;;;5067275;28;19925;-72
2022/09/24 07:47:24;;;;;;;;;;;12.50;99.90;;;;;;5041008;28;19963;-72
2022/09/24 07:49:55;;;;;;;;;;;12.60;99.90;;;;;;5034233;28;20402;-72
2022/09/24 07:52:27;;;;;;;;;;;12.70;99.90;;;;;;5052597;28;19979;-72
2022/09/24 07:54:59;;;;;;;;;;;12.80;99.90;;;;;;5058742;28;19929;-72
2022/09/24 07:57:30;;;;;;;;;;;12.90;99.90;;;;;;5062853;28;19970;-72
2022/09/24 07:59:57;;;;;;;;;;;13.10;99.90;;;;;;5053800;28;20720;-72
2022/09/24 08:02:23;;;;;;;;;;;13.20;99.90;;;;;;5019592;28;20384;-72
2022/09/24 08:04:50;;;;;;;;;;;13.30;99.90;;;;;;5073248;28;20413;-73
2022/09/24 08:07:22;;;;;;;;;;;13.40;99.90;;;;;;5063567;28;19969;-72
2022/09/24 08:09:48;;;;;;;;;;;13.50;99.90;;;;;;5093816;28;20420;-72
2022/09/24 08:12:20;;;;;;;;;;;13.60;99.90;;;;;;5077417;28;20438;-72
2022/09/24 08:14:51;;;;;;;;;;;13.60;99.90;;;;;;5069700;28;20344;-72
2022/09/24 08:17:23;;;;;;;;;;;13.60;99.90;;;;;;5070577;28;19979;-72
2022/09/24 08:19:51;;;;;;;;;;;13.60;99.90;;;;;;5071458;28;19994;-72
2022/09/24 08:22:23;;;;;;;;;;;13.60;99.90;;;;;;5064885;28;19924;-72
2022/09/24 08:24:56;;;;;;;;;;;13.60;99.90;;;;;;5071249;28;20379;-72
2022/09/24 08:27:28;;;;;;;;;;;13.60;99.90;;;;;;5070468;28;19955;-72
2022/09/24 08:29:59;;;;;;;;;;;13.60;99.90;;;;;;5051989;28;19924;-72
2022/09/24 08:32:31;;;;;;;;;;;13.60;99.90;;;;;;5093317;28;19969;-73
2022/09/24 08:35:03;;;;;;;;;;;13.60;99.90;;;;;;5081078;28;20437;-72
2022/09/24 08:37:34;;;;;;;;;;;13.60;99.90;;;;;;5059511;28;19982;-73
2022/09/24 08:40:09;;;;;;;;;;;13.60;99.90;;;;;;5068353;28;19970;-73
2022/09/24 08:42:48;;;;;;;;;;;13.50;99.90;;;;;;5067494;28;19928;-73
2022/09/24 08:48:14;;;;;;;;;;;13.40;99.90;;;;;;5051546;28;19925;-72
2022/09/24 08:50:59;;;;;;;;;;;13.40;99.90;;;;;;5039298;28;20339;-73
2022/09/24 08:53:40;;;;;;;;;;;13.30;99.90;;;;;;5035667;28;20335;-72
2022/09/24 08:56:23;;;;;;;;;;;13.30;99.90;;;;;;5064727;28;19929;-72
2022/09/24 08:58:58;;;;;;;;;;;13.30;99.90;;;;;;5072690;28;19924;-72
2022/09/24 09:01:43;;;;;;;;;;;13.30;99.90;;;;;;5071601;28;19986;-72
2022/09/24 09:04:24;;;;;;;;;;;13.40;99.90;;;;;;5055904;28;19974;-73
2022/09/24 09:07:08;;;;;;;;;;;13.30;99.90;;;;;;5060852;28;19924;-72
2022/09/24 09:09:51;;;;;;;;;;;13.30;99.90;;;;;;5046708;28;19980;-73
2022/09/24 09:12:25;;;;;;;;;;;13.40;99.90;;;;;;5054707;28;19955;-73
2022/09/24 09:15:02;;;;;;;;;;;13.30;99.90;;;;;;5092984;28;19928;-73
2022/09/24 09:17:36;;;;;;;;;;;13.30;99.90;;;;;;5075477;28;19975;-72
2022/09/24 09:20:18;;;;;;;;;;;13.30;99.90;;;;;;5074829;28;19969;-73
2022/09/24 09:22:52;;;;;;;;;;;13.30;99.90;;;;;;5059956;28;19924;-72
2022/09/24 09:25:27;;;;;;;;;;;13.30;99.90;;;;;;5044151;28;19975;-72
2022/09/24 09:27:59;;;;;;;;;;;13.30;99.90;;;;;;5069588;28;19925;-72
2022/09/24 09:30:42;;;;;;;;;;;13.30;99.90;;;;;;5068906;28;19946;-72
2022/09/24 09:33:36;;;;;;;;;;;13.30;99.90;;;;;;5068460;28;19925;-73
2022/09/24 09:36:10;;;;;;;;;;;13.30;99.90;;;;;;5051014;28;19975;-73
2022/09/24 09:38:42;;;;;;;;;;;13.30;99.90;;;;;;5048528;28;19982;-72
2022/09/24 09:41:22;;;;;;;;;;;13.30;99.90;;;;;;5068069;28;20398;-73
2022/09/24 09:43:58;;;;;;;;;;;13.40;99.90;;;;;;5059796;28;19928;-73
2022/09/24 09:46:32;;;;;;;;;;;13.40;99.90;;;;;;5070804;28;19924;-73
2022/09/24 09:49:05;;;;;;;;;;;13.40;99.90;;;;;;5076340;28;19954;-73
2022/09/24 09:51:36;;;;;;;;;;;13.40;99.90;;;;;;5046508;28;19929;-72
2022/09/24 09:54:07;;;;;;;;;;;13.40;99.90;;;;;;5074727;28;19974;-73
2022/09/24 09:56:44;;;;;;;;;;;13.40;99.90;;;;;;5063266;28;19969;-72
2022/09/24 09:59:18;;;;;;;;;;;13.50;99.90;;;;;;5059167;28;20411;-73
2022/09/24 10:01:55;;;;;;;;;;;13.50;99.90;;;;;;5079581;28;20391;-73
2022/09/24 10:04:36;;;;;;;;;;;13.50;99.90;;;;;;5096413;28;19927;-73
2022/09/24 10:07:12;;;;;;;;;;;13.50;99.90;;;;;;5038913;28;19975;-72
2022/09/24 10:09:45;;;;;;;;;;;13.60;99.90;;;;;;5055746;28;19928;-72
2022/09/24 10:12:21;;;;;;;;;;;13.50;99.90;;;;;;5077951;28;20406;-72
2022/09/24 10:14:58;;;;;;;;;;;13.60;99.90;;;;;;5078263;28;20383;-72
2022/09/24 10:17:35;;;;;;;;;;;13.60;99.90;;;;;;5047687;28;20314;-72
2022/09/24 10:20:22;;;;;;;;;;;13.60;99.90;;;;;;5057641;28;19981;-72
2022/09/24 10:23:05;;;;;;;;;;;13.70;99.90;;;;;;5046530;28;20348;-73
2022/09/24 10:25:37;;;;;;;;;;;13.70;99.90;;;;;;5067776;28;19925;-72
2022/09/24 10:31:09;;;;;;;;;;;13.80;99.90;;;;;;5075401;28;19928;-72
2022/09/24 10:33:46;;;;;;;;;;;13.90;99.90;;;;;;5065055;28;19967;-73
2022/09/24 10:36:22;;;;;;;;;;;14.00;99.90;;;;;;5073621;28;19925;-72
2022/09/24 10:39:01;;;;;;;;;;;14.00;99.90;;;;;;5076815;28;19977;-73
2022/09/24 10:41:33;;;;;;;;;;;14.00;99.90;;;;;;5077328;28;19932;-72
2022/09/24 10:44:10;;;;;;;;;;;14.10;99.90;;;;;;5061630;28;19924;-72
2022/09/24 10:46:41;;;;;;;;;;;14.10;99.90;;;;;;5098824;28;19928;-73
2022/09/24 10:49:22;;;;;;;;;;;14.20;99.90;;;;;;5077330;28;19994;-72
2022/09/24 10:52:02;;;;;;;;;;;14.20;99.90;;;;;;5094062;28;19939;-73
2022/09/24 10:54:41;;;;;;;;;;;14.30;99.90;;;;;;5095317;28;20014;-72
2022/09/24 10:57:16;;;;;;;;;;;14.20;99.90;;;;;;5078463;28;19929;-72
2022/09/24 10:59:56;;;;;;;;;;;14.20;99.90;;;;;;5034801;28;20384;-72
2022/09/24 11:02:30;;;;;;;;;;;14.30;99.90;;;;;;5041072;28;19925;-72
2022/09/24 11:05:12;;;;;;;;;;;14.20;99.90;;;;;;5069478;28;20394;-72
2022/09/24 11:07:55;;;;;;;;;;;14.20;99.90;;;;;;5057677;28;19982;-71
2022/09/24 11:10:34;;;;;;;;;;;14.30;99.90;;;;;;5078561;28;19924;-72
2022/09/24 11:13:15;;;;;;;;;;;14.30;99.90;;;;;;5051088;28;19925;-71
2022/09/24 11:15:57;;;;;;;;;;;14.40;99.90;;;;;;5068068;28;19947;-72
2022/09/24 11:18:36;;;;;;;;;;;14.40;99.90;;;;;;5053583;28;20391;-72
2022/09/24 11:21:26;;;;;;;;;;;14.40;99.90;;;;;;5067274;28;19932;-72
2022/09/24 11:23:58;;;;;;;;;;;14.40;99.90;;;;;;5074648;28;20452;-72
2022/09/24 11:26:48;;;;;;;;;;;14.40;99.90;;;;;;5072253;28;19925;-71
2022/09/24 11:29:20;;;;;;;;;;;14.50;99.90;;;;;;5064541;28;19982;-72
2022/09/24 11:32:05;;;;;;;;;;;14.40;99.90;;;;;;5073659;28;19928;-72
2022/09/24 11:34:36;;;;;;;;;;;14.40;99.90;;;;;;5054393;28;19971;-72
2022/09/24 11:37:27;;;;;;;;;;;14.40;99.90;;;;;;5053991;28;19925;-71
2022/09/24 11:40:02;;;;;;;;;;;14.30;99.90;;;;;;5053827;28;19947;-72
2022/09/24 11:42:52;;;;;;;;;;;14.30;99.90;;;;;;5040649;28;19924;-71
2022/09/24 11:45:36;;;;;;;;;;;14.30;99.90;;;;;;5036225;28;19947;-72
2022/09/24 11:48:13;;;;;;;;;;;14.30;99.90;;;;;;5049076;28;19925;-71
2022/09/24 11:50:48;;;;;;;;;;;14.40;99.90;;;;;;5059292;28;19997;-72
2022/09/24 11:53:20;;;;;;;;;;;14.50;99.90;;;;;;5070662;28;19924;-72
2022/09/24 11:55:55;;;;;;;;;;;14.50;99.90;;;;;;5053629;28;19988;-71
2022/09/24 11:58:35;;;;;;;;;;;14.50;99.90;;;;;;5071829;28;19954;-71
2022/09/24 12:01:13;;;;;;;;;;;14.50;99.90;;;;;;5061631;28;19978;-71
2022/09/24 12:03:55;;;;;;;;;;;14.50;99.90;;;;;;5061215;28;19928;-71
2022/09/24 12:06:30;;;;;;;;;;;14.60;99.90;;;;;;5042242;28;19925;-71
2022/09/24 12:09:20;;;;;;;;;;;14.60;99.90;;;;;;5072941;28;20821;-71
2022/09/24 12:12:31;;;;;;;;;;;14.60;99.90;;;;;;5041815;28;20383;-71
2022/09/24 12:15:13;;;;;;;;;;;14.60;99.90;;;;;;4990705;28;20017;-71
2022/09/24 12:17:53;;;;;;;;;;;14.70;99.90;;;;;;4972392;28;19972;-71
2022/09/24 12:20:27;;;;;;;;;;;14.70;99.90;;;;;;5047975;28;20322;-71
2022/09/24 12:23:01;;;;;;;;;;;14.70;99.90;;;;;;5044298;28;20441;-71
2022/09/24 12:25:38;;;;;;;;;;;14.60;99.90;;;;;;5062956;28;20354;-71
2022/09/24 12:28:04;;;;;;;;;;;14.70;99.90;;;;;;5076860;28;19943;-71
2022/09/24 12:33:22;;;;;;;;;;;14.70;99.90;;;;;;5073186;28;19924;-71
2022/09/24 12:35:57;;;;;;;;;;;14.70;99.90;;;;;;5058116;28;20348;-72
2022/09/24 12:38:29;;;;;;;;;;;14.60;99.90;;;;;;5045458;28;19932;-71
2022/09/24 12:41:19;;;;;;;;;;;14.60;99.90;;;;;;5043301;28;19924;-72
2022/09/24 12:44:09;;;;;;;;;;;14.60;99.90;;;;;;5075494;28;20008;-71
2022/09/24 12:46:43;;;;;;;;;;;14.60;99.90;;;;;;5069813;28;19925;-71
2022/09/24 12:49:36;;;;;;;;;;;14.60;99.90;;;;;;5056576;28;19974;-72
2022/09/24 12:52:26;;;;;;;;;;;14.60;99.90;;;;;;5034893;28;19936;-71
2022/09/24 12:54:59;;;;;;;;;;;14.50;99.90;;;;;;5077782;28;19978;-72
2022/09/24 12:57:31;;;;;;;;;;;14.50;99.90;;;;;;5044775;28;20049;-71
2022/09/24 13:00:23;;;;;;;;;;;14.50;99.90;;;;;;5063081;28;19971;-71
2022/09/24 13:02:54;;;;;;;;;;;14.50;99.90;;;;;;5058203;28;19925;-71
2022/09/24 13:05:28;;;;;;;;;;;14.60;99.90;;;;;;5057551;28;19928;-72
2022/09/24 13:08:02;;;;;;;;;;;14.60;99.90;;;;;;5034472;28;19925;-71
2022/09/24 13:10:35;;;;;;;;;;;14.60;99.90;;;;;;5046895;28;19925;-71
2022/09/24 13:13:26;;;;;;;;;;;14.70;99.90;;;;;;5088475;28;19928;-72
2022/09/24 13:16:02;;;;;;;;;;;14.80;99.90;;;;;;5067859;28;19928;-71
2022/09/24 13:18:34;;;;;;;;;;;15.00;99.90;;;;;;5068588;28;20349;-72
2022/09/24 13:21:07;;;;;;;;;;;15.00;99.90;;;;;;5051853;28;20375;-71
2022/09/24 13:23:43;;;;;;;;;;;15.10;99.90;;;;;;5085485;28;19924;-71
2022/09/24 13:26:24;;;;;;;;;;;15.10;99.90;;;;;;5065956;28;19924;-71
2022/09/24 13:28:57;;;;;;;;;;;15.00;99.90;;;;;;5045710;28;19936;-71
2022/09/24 13:31:28;;;;;;;;;;;15.00;99.90;;;;;;5067940;28;19924;-71
2022/09/24 13:34:09;;;;;;;;;;;14.90;99.90;;;;;;5060641;28;19978;-73
2022/09/24 13:37:01;;;;;;;;;;;14.90;99.90;;;;;;5077442;28;19970;-72
2022/09/24 13:39:50;;;;;;;;;;;14.90;99.90;;;;;;5051202;28;19924;-73
2022/09/24 13:42:27;;;;;;;;;;;14.80;99.90;;;;;;5053828;28;20568;-73
2022/09/24 13:45:00;;;;;;;;;;;14.80;99.90;;;;;;5084339;28;19928;-72
2022/09/24 13:47:35;;;;;;;;;;;14.80;99.90;;;;;;5073101;28;19978;-73
2022/09/24 13:50:06;;;;;;;;;;;14.80;99.90;;;;;;5075334;28;20344;-72
2022/09/24 13:52:44;;;;;;;;;;;14.80;99.90;;;;;;5066105;28;19932;-73
2022/09/24 13:55:16;;;;;;;;;;;14.80;99.90;;;;;;5040567;28;19963;-72
2022/09/24 13:57:47;;;;;;;;;;;14.80;99.90;;;;;;5048472;28;20374;-73
2022/09/24 14:00:20;;;;;;;;;;;14.80;99.90;;;;;;5085066;28;19924;-72
2022/09/24 14:03:03;;;;;;;;;;;14.80;99.90;;;;;;5077881;28;19925;-73
2022/09/24 14:05:36;;;;;;;;;;;14.80;99.90;;;;;;5077497;28;19977;-72
2022/09/24 14:08:10;;;;;;;;;;;14.80;99.90;;;;;;5041874;28;19982;-73
2022/09/24 14:10:42;;;;;;;;;;;14.80;99.90;;;;;;5078262;28;19958;-73
2022/09/24 14:13:22;;;;;;;;;;;14.80;99.90;;;;;;5084792;28;19931;-73
2022/09/24 14:15:53;;;;;;;;;;;14.80;99.90;;;;;;5053177;28;19968;-73
2022/09/24 14:18:26;;;;;;;;;;;14.80;99.90;;;;;;5079184;28;19992;-72
2022/09/24 14:21:03;;;;;;;;;;;14.70;99.90;;;;;;5080881;28;20593;-72
2022/09/24 14:23:32;;;;;;;;;;;14.70;99.90;;;;;;5075044;28;19931;-73
2022/09/24 14:26:04;;;;;;;;;;;14.70;99.90;;;;;;5051577;28;19955;-72
2022/09/24 14:28:36;;;;;;;;;;;14.60;99.90;;;;;;5058251;28;19977;-73
2022/09/24 14:31:06;;;;;;;;;;;14.60;99.90;;;;;;5051675;28;19924;-73
2022/09/24 14:33:38;;;;;;;;;;;14.60;99.90;;;;;;5063951;28;19928;-73
2022/09/24 14:36:11;;;;;;;;;;;14.70;99.90;;;;;;5052483;28;19979;-73
2022/09/24 14:38:46;;;;;;;;;;;14.60;99.90;;;;;;5080510;28;19974;-72
2022/09/24 14:41:20;;;;;;;;;;;14.60;99.90;;;;;;5083578;28;19924;-73
2022/09/24 14:43:51;;;;;;;;;;;14.60;99.90;;;;;;5079963;28;19925;-73
2022/09/24 14:46:30;;;;;;;;;;;14.60;99.90;;;;;;5070339;28;19928;-72
2022/09/24 14:49:16;;;;;;;;;;;14.60;99.90;;;;;;5061956;28;20373;-72
2022/09/24 14:51:53;;;;;;;;;;;14.60;99.90;;;;;;5081518;28;20516;-73
2022/09/24 14:54:25;;;;;;;;;;;14.60;99.90;;;;;;5066916;28;20371;-72
2022/09/24 14:57:07;;;;;;;;;;;14.60;99.90;;;;;;5049817;28;19928;-73
2022/09/24 14:59:35;;;;;;;;;;;14.70;99.90;;;;;;5082272;28;19924;-73
2022/09/24 15:02:15;;;;;;;;;;;14.70;99.90;;;;;;5078100;28;19998;-73
2022/09/24 15:04:48;;;;;;;;;;;14.70;99.90;;;;;;5074994;28;19929;-72
2022/09/24 15:07:24;;;;;;;;;;;14.80;99.90;;;;;;5056832;28;19968;-73
2022/09/24 15:09:56;;;;;;;;;;;14.70;99.90;;;;;;5079167;28;20412;-73
2022/09/24 15:12:35;;;;;;;;;;;14.70;99.90;;;;;;5065086;28;19928;-73
2022/09/24 15:15:13;;;;;;;;;;;14.70;99.90;;;;;;5081099;28;19929;-72
2022/09/24 15:17:40;;;;;;;;;;;14.80;99.90;;;;;;5080496;28;19975;-73